createdAt,value
2023-03-08T00:00:56.565Z,96064.63
2023-03-08T00:01:58.159Z,96070.06
2023-03-08T00:02:59.943Z,96081.53
2023-03-08T00:04:01.616Z,96074.72
2023-03-08T00:05:03.743Z,96073.31
2023-03-08T00:06:07.929Z,96073.31
2023-03-08T00:07:09.612Z,96071.06
2023-03-08T00:08:11.188Z,96077.34
2023-03-08T00:09:12.761Z,96080.84
2023-03-08T00:10:14.618Z,96075.63
2023-03-08T00:11:16.377Z,96072.16
2023-03-08T00:12:22.696Z,96080.63
2023-03-08T00:13:24.285Z,96079.50
2023-03-08T00:14:25.963Z,96083.41
2023-03-08T00:15:27.533Z,96082.41
2023-03-08T00:16:29.218Z,96082.66
2023-03-08T00:17:30.744Z,96080.44
2023-03-08T00:18:34.097Z,96081.88
2023-03-08T00:19:35.729Z,96083.72
2023-03-08T00:20:37.292Z,96081.44
2023-03-08T00:21:38.832Z,96079.75
2023-03-08T00:22:42.272Z,96077.16
2023-03-08T00:23:44.909Z,96080.94
2023-03-08T00:24:46.747Z,96079.00
2023-03-08T00:25:52.996Z,96072.38
2023-03-08T00:26:54.526Z,96077.44
2023-03-08T00:27:56.127Z,96070.28
2023-03-08T00:28:57.750Z,96068.97
2023-03-08T00:29:59.298Z,96071.56
2023-03-08T00:31:04.167Z,96069.09
2023-03-08T00:32:05.948Z,96063.63
2023-03-08T00:33:07.506Z,96074.16
2023-03-08T00:34:09.038Z,96079.06
2023-03-08T00:35:10.668Z,96075.00
2023-03-08T00:36:15.595Z,96074.09
2023-03-08T00:37:17.290Z,96072.53
2023-03-08T00:38:18.817Z,96077.56
2023-03-08T00:39:20.474Z,96082.41
2023-03-08T00:40:22.018Z,96075.38
2023-03-08T00:41:23.593Z,96074.91
2023-03-08T00:42:25.164Z,96068.81
2023-03-08T00:43:27.286Z,96071.66
2023-03-08T00:44:28.796Z,96076.06
2023-03-08T00:45:30.311Z,96077.50
2023-03-08T00:46:32.027Z,96078.09
2023-03-08T00:47:35.469Z,96077.97
2023-03-08T00:48:37.003Z,96075.13
2023-03-08T00:49:38.552Z,96075.25
2023-03-08T00:50:40.179Z,96067.88
2023-03-08T00:51:41.700Z,96073.19
2023-03-08T00:52:43.220Z,96071.91
2023-03-08T00:53:44.895Z,96067.22
2023-03-08T00:54:46.431Z,96073.19
2023-03-08T00:55:54.073Z,96067.69
2023-03-08T00:56:55.695Z,96070.19
2023-03-08T00:57:57.238Z,96072.06
2023-03-08T00:58:58.810Z,96062.22
2023-03-08T01:00:00.456Z,96065.97
2023-03-08T01:01:01.996Z,96072.25
2023-03-08T01:02:03.552Z,96071.91
2023-03-08T01:03:05.092Z,96073.72
2023-03-08T01:04:06.762Z,96068.03
2023-03-08T01:05:09.774Z,96066.25
2023-03-08T01:06:14.842Z,96070.84
2023-03-08T01:07:16.430Z,96069.25
2023-03-08T01:08:18.852Z,96071.84
2023-03-08T01:09:20.401Z,96073.41
2023-03-08T01:10:22.079Z,96085.16
2023-03-08T01:11:27.061Z,96080.31
2023-03-08T01:12:28.608Z,96077.56
2023-03-08T01:13:33.141Z,96078.75
2023-03-08T01:14:34.729Z,96085.13
2023-03-08T01:15:37.560Z,96080.63
2023-03-08T01:16:39.153Z,96084.72
2023-03-08T01:17:40.804Z,96082.19
2023-03-08T01:18:42.371Z,96087.31
2023-03-08T01:19:43.947Z,96079.00
2023-03-08T01:20:45.560Z,96079.91
2023-03-08T01:21:47.121Z,96083.78
2023-03-08T01:22:48.683Z,96084.72
2023-03-08T01:23:50.920Z,96089.38
2023-03-08T01:24:52.493Z,96081.59
2023-03-08T01:26:04.816Z,96082.00
2023-03-08T01:27:06.390Z,96084.25
2023-03-08T01:28:07.993Z,96082.97
2023-03-08T01:29:09.548Z,96085.69
2023-03-08T01:30:11.595Z,96087.44
2023-03-08T01:31:14.596Z,96089.50
2023-03-08T01:32:16.148Z,96086.63
2023-03-08T01:33:17.665Z,96088.50
2023-03-08T01:34:19.878Z,96094.06
2023-03-08T01:35:21.454Z,96091.75
2023-03-08T01:36:25.488Z,96086.41
2023-03-08T01:37:26.991Z,96083.28
2023-03-08T01:38:28.618Z,96086.34
2023-03-08T01:39:30.204Z,96084.19
2023-03-08T01:40:31.784Z,96087.97
2023-03-08T01:41:33.496Z,96089.88
2023-03-08T01:42:38.596Z,96081.16
2023-03-08T01:43:40.421Z,96087.59
2023-03-08T01:45:03.504Z,96081.69
2023-03-08T01:46:23.162Z,96086.53
2023-03-08T01:47:30.360Z,96081.38
2023-03-08T01:48:36.825Z,96083.09
2023-03-08T01:49:38.478Z,96085.25
2023-03-08T01:50:40.715Z,96087.31
2023-03-08T01:51:42.243Z,96093.22
2023-03-08T01:52:51.482Z,96093.38
2023-03-08T01:53:53.882Z,96096.31
2023-03-08T01:54:58.540Z,96086.59
2023-03-08T01:56:00.160Z,96092.00
2023-03-08T01:57:42.341Z,96087.25
2023-03-08T01:58:46.170Z,96079.41
2023-03-08T01:59:50.467Z,96079.06
2023-03-08T02:00:52.077Z,96084.66
2023-03-08T02:01:53.784Z,96079.59
2023-03-08T02:03:00.005Z,96074.28
2023-03-08T02:04:02.915Z,96072.63
2023-03-08T02:05:04.728Z,96075.66
2023-03-08T02:06:08.203Z,96071.78
2023-03-08T02:07:09.700Z,96073.69
2023-03-08T02:08:11.344Z,96068.56
2023-03-08T02:09:13.270Z,96075.13
2023-03-08T02:10:17.189Z,96071.25
2023-03-08T02:11:20.577Z,96069.16
2023-03-08T02:12:22.692Z,96073.22
2023-03-08T02:13:25.237Z,96072.72
2023-03-08T02:14:27.616Z,96069.75
2023-03-08T02:15:29.405Z,96070.63
2023-03-08T02:16:31.241Z,96074.03
2023-03-08T02:17:38.500Z,96067.53
2023-03-08T02:18:52.019Z,96071.56
2023-03-08T02:20:18.118Z,96066.50
2023-03-08T02:21:19.695Z,96065.88
2023-03-08T02:22:21.850Z,96066.19
2023-03-08T02:23:25.462Z,96061.97
2023-03-08T02:24:27.092Z,96063.66
2023-03-08T02:25:28.623Z,96069.13
2023-03-08T02:26:30.174Z,96067.06
2023-03-08T02:27:31.728Z,96065.75
2023-03-08T02:28:34.202Z,96064.00
2023-03-08T02:29:35.826Z,96066.13
2023-03-08T02:30:38.506Z,96069.25
2023-03-08T02:31:40.895Z,96067.06
2023-03-08T02:32:42.551Z,96065.31
2023-03-08T02:33:44.206Z,96066.28
2023-03-08T02:34:45.861Z,96064.06
2023-03-08T02:35:47.536Z,96067.97
2023-03-08T02:36:49.043Z,96063.84
2023-03-08T02:37:50.613Z,96065.88
2023-03-08T02:38:52.155Z,96060.16
2023-03-08T02:39:53.816Z,96064.44
2023-03-08T02:40:55.964Z,96063.91
2023-03-08T02:41:57.490Z,96073.31
2023-03-08T02:42:59.039Z,96067.88
2023-03-08T02:44:00.630Z,96071.13
2023-03-08T02:45:02.220Z,96068.66
2023-03-08T02:46:03.807Z,96068.78
2023-03-08T02:47:05.547Z,96071.72
2023-03-08T02:48:08.324Z,96064.19
2023-03-08T02:49:10.000Z,96070.63
2023-03-08T02:50:11.812Z,96073.91
2023-03-08T02:51:13.357Z,96078.63
2023-03-08T02:52:15.029Z,96072.53
2023-03-08T02:53:16.578Z,96081.75
2023-03-08T02:54:18.126Z,96071.47
2023-03-08T02:55:19.750Z,96076.63
2023-03-08T02:56:21.305Z,96073.97
2023-03-08T02:57:22.882Z,96068.31
2023-03-08T02:58:24.469Z,96069.75
2023-03-08T02:59:26.894Z,96072.94
2023-03-08T03:00:28.430Z,96078.00
2023-03-08T03:01:30.002Z,96084.09
2023-03-08T03:02:34.896Z,96085.63
2023-03-08T03:03:36.408Z,96083.84
2023-03-08T03:04:38.097Z,96089.91
2023-03-08T03:05:44.274Z,96090.72
2023-03-08T03:06:45.778Z,96089.44
2023-03-08T03:07:47.295Z,96097.25
2023-03-08T03:08:49.639Z,96095.03
2023-03-08T03:09:51.414Z,96089.25
2023-03-08T03:10:52.974Z,96083.75
2023-03-08T03:11:54.499Z,96095.94
2023-03-08T03:12:56.089Z,96092.19
2023-03-08T03:13:59.721Z,96093.88
2023-03-08T03:15:06.035Z,96098.69
2023-03-08T03:16:13.781Z,96100.25
2023-03-08T03:17:15.896Z,96090.25
2023-03-08T03:18:17.401Z,96100.47
2023-03-08T03:19:18.974Z,96097.25
2023-03-08T03:20:20.632Z,96101.63
2023-03-08T03:21:23.075Z,96102.81
2023-03-08T03:22:24.644Z,96101.88
2023-03-08T03:23:26.172Z,96102.56
2023-03-08T03:24:27.695Z,96108.47
2023-03-08T03:25:29.321Z,96107.38
2023-03-08T03:26:30.868Z,96112.09
2023-03-08T03:27:32.593Z,96100.50
2023-03-08T03:28:34.395Z,96105.97
2023-03-08T03:29:38.280Z,96105.81
2023-03-08T03:30:39.918Z,96104.59
2023-03-08T03:31:41.580Z,96099.63
2023-03-08T03:32:43.186Z,96103.22
2023-03-08T03:33:45.891Z,96106.50
2023-03-08T03:34:47.724Z,96112.94
2023-03-08T03:35:49.261Z,96112.78
2023-03-08T03:36:50.845Z,96109.50
2023-03-08T03:37:52.413Z,96112.94
2023-03-08T03:38:54.039Z,96109.34
2023-03-08T03:39:55.617Z,96110.13
2023-03-08T03:41:11.189Z,96119.06
2023-03-08T03:42:12.883Z,96121.56
2023-03-08T03:43:14.395Z,96112.03
2023-03-08T03:44:15.894Z,96120.91
2023-03-08T03:45:17.443Z,96116.88
2023-03-08T03:46:21.099Z,96121.22
2023-03-08T03:47:22.726Z,96120.44
2023-03-08T03:48:24.466Z,96122.00
2023-03-08T03:49:26.291Z,96124.97
2023-03-08T03:50:27.870Z,96128.72
2023-03-08T03:51:29.504Z,96139.97
2023-03-08T03:52:31.451Z,96129.00
2023-03-08T03:53:34.548Z,96129.31
2023-03-08T03:54:36.312Z,96137.88
2023-03-08T03:55:38.000Z,96143.97
2023-03-08T03:56:39.758Z,96134.91
2023-03-08T03:57:42.470Z,96125.97
2023-03-08T03:58:44.821Z,96133.50
2023-03-08T03:59:46.364Z,96129.75
2023-03-08T04:00:48.120Z,96135.22
2023-03-08T04:01:49.696Z,96127.06
2023-03-08T04:02:51.243Z,96134.88
2023-03-08T04:03:53.998Z,96132.81
2023-03-08T04:04:55.573Z,96136.53
2023-03-08T04:06:08.901Z,96127.31
2023-03-08T04:07:12.834Z,96132.44
2023-03-08T04:08:14.433Z,96126.03
2023-03-08T04:09:18.429Z,96127.25
2023-03-08T04:10:19.930Z,96127.78
2023-03-08T04:11:24.842Z,96126.97
2023-03-08T04:12:26.411Z,96127.97
2023-03-08T04:13:27.981Z,96128.63
2023-03-08T04:14:29.593Z,96129.84
2023-03-08T04:15:31.286Z,96130.16
2023-03-08T04:16:36.314Z,96135.66
2023-03-08T04:17:37.862Z,96131.91
2023-03-08T04:18:39.594Z,96132.03
2023-03-08T04:19:41.104Z,96132.22
2023-03-08T04:20:45.560Z,96134.09
2023-03-08T04:21:47.064Z,96134.38
2023-03-08T04:22:48.636Z,96129.19
2023-03-08T04:23:50.571Z,96132.28
2023-03-08T04:24:52.090Z,96129.50
2023-03-08T04:25:53.680Z,96137.31
2023-03-08T04:26:55.271Z,96125.38
2023-03-08T04:27:56.843Z,96130.53
2023-03-08T04:28:58.483Z,96132.22
2023-03-08T04:30:00.051Z,96134.25
2023-03-08T04:31:13.603Z,96131.28
2023-03-08T04:32:15.393Z,96139.09
2023-03-08T04:33:16.935Z,96138.44
2023-03-08T04:34:18.485Z,96137.16
2023-03-08T04:35:21.228Z,96134.94
2023-03-08T04:36:23.083Z,96131.97
2023-03-08T04:37:25.772Z,96137.16
2023-03-08T04:38:27.325Z,96131.06
2023-03-08T04:39:28.936Z,96135.47
2023-03-08T04:40:30.490Z,96139.16
2023-03-08T04:41:32.012Z,96132.81
2023-03-08T04:42:33.912Z,96138.03
2023-03-08T04:43:35.696Z,96141.22
2023-03-08T04:44:37.269Z,96141.72
2023-03-08T04:45:38.817Z,96141.69
2023-03-08T04:46:40.406Z,96145.13
2023-03-08T04:47:42.019Z,96147.34
2023-03-08T04:48:43.657Z,96146.69
2023-03-08T04:49:45.209Z,96148.56
2023-03-08T04:50:56.645Z,96148.72
2023-03-08T04:51:58.302Z,96154.03
2023-03-08T04:52:59.882Z,96150.75
2023-03-08T04:54:01.433Z,96152.00
2023-03-08T04:55:03.373Z,96147.16
2023-03-08T04:56:06.663Z,96158.69
2023-03-08T04:57:08.213Z,96154.91
2023-03-08T04:58:09.791Z,96153.97
2023-03-08T04:59:11.394Z,96156.16
2023-03-08T05:00:13.660Z,96161.78
2023-03-08T05:01:20.755Z,96159.91
2023-03-08T05:02:23.680Z,96155.19
2023-03-08T05:03:25.947Z,96157.38
2023-03-08T05:04:27.497Z,96153.03
2023-03-08T05:05:29.131Z,96162.41
2023-03-08T05:06:31.108Z,96158.00
2023-03-08T05:07:32.833Z,96157.16
2023-03-08T05:08:34.500Z,96154.03
2023-03-08T05:09:36.311Z,96154.22
2023-03-08T05:10:38.418Z,96146.25
2023-03-08T05:11:39.942Z,96145.16
2023-03-08T05:12:41.563Z,96142.34
2023-03-08T05:13:43.132Z,96148.16
2023-03-08T05:14:44.689Z,96150.22
2023-03-08T05:15:46.263Z,96158.38
2023-03-08T05:16:48.240Z,96160.44
2023-03-08T05:17:50.827Z,96161.56
2023-03-08T05:18:53.055Z,96171.69
2023-03-08T05:19:54.601Z,96161.53
2023-03-08T05:21:02.644Z,96167.63
2023-03-08T05:22:05.736Z,96172.03
2023-03-08T05:23:07.421Z,96165.44
2023-03-08T05:24:09.035Z,96163.88
2023-03-08T05:25:10.962Z,96164.50
2023-03-08T05:26:15.396Z,96166.84
2023-03-08T05:27:16.938Z,96171.53
2023-03-08T05:28:18.440Z,96169.34
2023-03-08T05:29:19.966Z,96172.47
2023-03-08T05:30:21.545Z,96163.38
2023-03-08T05:31:23.196Z,96163.69
2023-03-08T05:32:24.853Z,96169.31
2023-03-08T05:33:26.434Z,96166.47
2023-03-08T05:34:28.778Z,96170.84
2023-03-08T05:35:30.388Z,96167.69
2023-03-08T05:36:32.061Z,96171.75
2023-03-08T05:37:33.662Z,96173.63
2023-03-08T05:38:35.239Z,96181.13
2023-03-08T05:39:36.768Z,96181.75
2023-03-08T05:40:38.956Z,96174.69
2023-03-08T05:41:40.530Z,96176.06
2023-03-08T05:42:42.199Z,96182.13
2023-03-08T05:43:43.898Z,96192.31
2023-03-08T05:44:46.110Z,96192.94
2023-03-08T05:46:02.370Z,96192.16
2023-03-08T05:47:04.218Z,96194.81
2023-03-08T05:48:05.941Z,96197.13
2023-03-08T05:49:07.799Z,96198.69
2023-03-08T05:50:10.314Z,96190.41
2023-03-08T05:51:14.194Z,96196.16
2023-03-08T05:52:15.759Z,96193.50
2023-03-08T05:53:17.295Z,96195.72
2023-03-08T05:54:18.806Z,96194.28
2023-03-08T05:55:20.408Z,96191.31
2023-03-08T05:56:24.060Z,96189.75
2023-03-08T05:57:25.586Z,96194.63
2023-03-08T05:58:27.108Z,96197.28
2023-03-08T05:59:28.654Z,96196.66
2023-03-08T06:00:30.188Z,96202.88
2023-03-08T06:01:31.686Z,96209.78
2023-03-08T06:02:33.212Z,96202.56
2023-03-08T06:03:34.772Z,96199.91
2023-03-08T06:04:36.295Z,96200.69
2023-03-08T06:05:38.015Z,96204.44
2023-03-08T06:06:39.660Z,96204.16
2023-03-08T06:07:43.716Z,96207.69
2023-03-08T06:08:45.966Z,96209.66
2023-03-08T06:09:47.525Z,96207.97
2023-03-08T06:10:49.081Z,96209.66
2023-03-08T06:11:50.621Z,96214.03
2023-03-08T06:12:52.424Z,96214.50
2023-03-08T06:13:54.456Z,96212.16
2023-03-08T06:14:56.006Z,96223.53
2023-03-08T06:15:59.301Z,96221.81
2023-03-08T06:17:00.901Z,96230.56
2023-03-08T06:18:02.592Z,96232.59
2023-03-08T06:19:04.192Z,96234.31
2023-03-08T06:20:07.151Z,96228.72
2023-03-08T06:21:13.062Z,96227.31
2023-03-08T06:22:16.915Z,96233.72
2023-03-08T06:23:18.503Z,96229.47
2023-03-08T06:24:21.756Z,96223.97
2023-03-08T06:25:23.456Z,96221.47
2023-03-08T06:26:25.044Z,96220.50
2023-03-08T06:27:26.855Z,96225.16
2023-03-08T06:28:29.690Z,96226.53
2023-03-08T06:29:31.202Z,96225.72
2023-03-08T06:30:32.771Z,96223.06
2023-03-08T06:31:34.342Z,96224.03
2023-03-08T06:32:37.660Z,96219.38
2023-03-08T06:33:39.358Z,96226.94
2023-03-08T06:34:40.896Z,96229.94
2023-03-08T06:35:42.737Z,96233.72
2023-03-08T06:36:44.270Z,96233.75
2023-03-08T06:37:45.806Z,96233.78
2023-03-08T06:38:48.391Z,96242.53
2023-03-08T06:39:49.915Z,96235.63
2023-03-08T06:40:51.551Z,96241.91
2023-03-08T06:41:53.063Z,96246.41
2023-03-08T06:42:54.576Z,96246.41
2023-03-08T06:43:56.937Z,96244.69
2023-03-08T06:44:58.441Z,96244.53
2023-03-08T06:46:07.613Z,96247.19
2023-03-08T06:47:09.217Z,96250.81
2023-03-08T06:48:10.761Z,96245.59
2023-03-08T06:49:12.820Z,96248.44
2023-03-08T06:50:14.363Z,96244.50
2023-03-08T06:51:16.576Z,96244.78
2023-03-08T06:52:18.135Z,96247.56
2023-03-08T06:53:19.753Z,96251.91
2023-03-08T06:54:21.987Z,96256.09
2023-03-08T06:55:23.588Z,96257.25
2023-03-08T06:56:26.594Z,96259.16
2023-03-08T06:57:28.121Z,96260.34
2023-03-08T06:58:30.407Z,96264.03
2023-03-08T06:59:32.057Z,96268.09
2023-03-08T07:00:33.889Z,96263.44
2023-03-08T07:01:35.451Z,96270.50
2023-03-08T07:02:37.023Z,96270.88
2023-03-08T07:03:38.661Z,96270.25
2023-03-08T07:04:40.362Z,96271.19
2023-03-08T07:05:42.514Z,96267.00
2023-03-08T07:06:44.624Z,96269.06
2023-03-08T07:07:46.337Z,96269.19
2023-03-08T07:08:47.940Z,96269.31
2023-03-08T07:09:49.535Z,96260.84
2023-03-08T07:10:51.081Z,96263.41
2023-03-08T07:11:52.678Z,96262.63
2023-03-08T07:12:54.320Z,96263.06
2023-03-08T07:13:57.487Z,96264.84
2023-03-08T07:14:59.131Z,96260.19
2023-03-08T07:16:06.447Z,96259.50
2023-03-08T07:17:08.142Z,96260.31
2023-03-08T07:18:09.751Z,96254.59
2023-03-08T07:19:11.313Z,96264.78
2023-03-08T07:20:15.012Z,96258.97
2023-03-08T07:21:16.571Z,96257.59
2023-03-08T07:22:18.105Z,96259.53
2023-03-08T07:23:19.660Z,96260.69
2023-03-08T07:24:21.194Z,96262.09
2023-03-08T07:25:22.816Z,96268.56
2023-03-08T07:26:24.520Z,96264.41
2023-03-08T07:27:26.344Z,96260.03
2023-03-08T07:28:28.069Z,96261.75
2023-03-08T07:29:29.753Z,96259.47
2023-03-08T07:30:31.405Z,96259.25
2023-03-08T07:31:36.164Z,96260.59
2023-03-08T07:32:40.232Z,96256.63
2023-03-08T07:33:42.452Z,96265.53
2023-03-08T07:34:44.524Z,96261.50
2023-03-08T07:35:46.708Z,96262.16
2023-03-08T07:36:48.356Z,96263.31
2023-03-08T07:37:53.295Z,96268.41
2023-03-08T07:38:55.546Z,96267.31
2023-03-08T07:39:59.018Z,96267.50
2023-03-08T07:41:00.672Z,96261.50
2023-03-08T07:42:02.190Z,96269.63
2023-03-08T07:43:03.825Z,96269.09
2023-03-08T07:44:05.633Z,96263.53
2023-03-08T07:45:07.852Z,96276.13
2023-03-08T07:46:09.718Z,96270.44
2023-03-08T07:47:11.659Z,96269.31
2023-03-08T07:48:13.478Z,96265.63
2023-03-08T07:49:15.063Z,96268.63
2023-03-08T07:50:17.404Z,96273.59
2023-03-08T07:51:23.145Z,96266.63
2023-03-08T07:52:28.951Z,96261.09
2023-03-08T07:53:30.745Z,96263.72
2023-03-08T07:54:32.320Z,96268.94
2023-03-08T07:55:34.736Z,96269.78
2023-03-08T07:56:36.271Z,96273.06
2023-03-08T07:57:38.039Z,96263.75
2023-03-08T07:58:39.637Z,96263.50
2023-03-08T07:59:41.896Z,96262.13
2023-03-08T08:00:43.449Z,96269.56
2023-03-08T08:01:44.982Z,96270.06
2023-03-08T08:02:48.093Z,96274.38
2023-03-08T08:03:50.750Z,96259.16
2023-03-08T08:04:52.379Z,96262.75
2023-03-08T08:05:53.992Z,96262.94
2023-03-08T08:06:55.526Z,96258.41
2023-03-08T08:07:57.102Z,96256.16
2023-03-08T08:08:58.612Z,96252.72
2023-03-08T08:10:00.185Z,96259.81
2023-03-08T08:11:02.064Z,96258.50
2023-03-08T08:12:05.437Z,96254.66
2023-03-08T08:13:06.996Z,96260.13
2023-03-08T08:14:08.605Z,96263.50
2023-03-08T08:15:10.563Z,96255.72
2023-03-08T08:16:12.168Z,96254.56
2023-03-08T08:17:13.788Z,96260.91
2023-03-08T08:18:15.302Z,96258.63
2023-03-08T08:19:17.218Z,96256.13
2023-03-08T08:20:18.920Z,96255.38
2023-03-08T08:21:21.203Z,96261.25
2023-03-08T08:22:22.981Z,96253.63
2023-03-08T08:23:24.579Z,96248.28
2023-03-08T08:24:27.566Z,96253.97
2023-03-08T08:25:29.153Z,96255.50
2023-03-08T08:26:30.760Z,96247.50
2023-03-08T08:27:32.352Z,96252.66
2023-03-08T08:28:35.120Z,96251.94
2023-03-08T08:29:37.692Z,96249.84
2023-03-08T08:30:39.268Z,96249.28
2023-03-08T08:31:41.059Z,96244.91
2023-03-08T08:32:42.843Z,96256.22
2023-03-08T08:33:44.748Z,96252.72
2023-03-08T08:34:46.296Z,96246.56
2023-03-08T08:35:47.820Z,96243.16
2023-03-08T08:36:50.106Z,96243.63
2023-03-08T08:37:51.627Z,96245.19
2023-03-08T08:38:54.195Z,96244.06
2023-03-08T08:39:55.759Z,96246.19
2023-03-08T08:41:01.742Z,96241.19
2023-03-08T08:42:03.675Z,96244.63
2023-03-08T08:43:05.207Z,96238.47
2023-03-08T08:44:06.895Z,96235.44
2023-03-08T08:45:09.645Z,96239.03
2023-03-08T08:46:12.101Z,96233.72
2023-03-08T08:47:13.803Z,96230.75
2023-03-08T08:48:15.697Z,96231.47
2023-03-08T08:49:17.339Z,96233.88
2023-03-08T08:50:18.875Z,96230.63
2023-03-08T08:51:20.696Z,96226.41
2023-03-08T08:52:22.253Z,96237.00
2023-03-08T08:53:23.818Z,96238.69
2023-03-08T08:54:25.448Z,96232.66
2023-03-08T08:55:27.011Z,96231.47
2023-03-08T08:56:29.279Z,96235.34
2023-03-08T08:57:30.974Z,96229.50
2023-03-08T08:58:32.513Z,96228.25
2023-03-08T08:59:34.203Z,96221.25
2023-03-08T09:00:36.109Z,96220.53
2023-03-08T09:01:43.379Z,96213.84
2023-03-08T09:02:44.946Z,96221.41
2023-03-08T09:03:47.817Z,96218.19
2023-03-08T09:04:49.466Z,96218.06
2023-03-08T09:05:51.059Z,96217.16
2023-03-08T09:06:53.672Z,96220.41
2023-03-08T09:07:58.456Z,96214.03
2023-03-08T09:09:00.059Z,96214.78
2023-03-08T09:10:01.762Z,96207.09
2023-03-08T09:11:05.714Z,96207.94
2023-03-08T09:12:07.759Z,96213.81
2023-03-08T09:13:09.492Z,96211.53
2023-03-08T09:14:11.069Z,96204.75
2023-03-08T09:15:12.666Z,96208.31
2023-03-08T09:16:19.167Z,96202.75
2023-03-08T09:17:20.711Z,96206.25
2023-03-08T09:18:22.290Z,96206.88
2023-03-08T09:19:23.952Z,96214.66
2023-03-08T09:20:25.568Z,96210.16
2023-03-08T09:21:28.312Z,96203.44
2023-03-08T09:22:29.876Z,96205.25
2023-03-08T09:23:31.402Z,96202.78
2023-03-08T09:24:32.967Z,96206.72
2023-03-08T09:25:34.492Z,96201.38
2023-03-08T09:26:36.435Z,96204.09
2023-03-08T09:27:39.251Z,96209.59
2023-03-08T09:28:40.843Z,96207.09
2023-03-08T09:29:42.384Z,96204.75
2023-03-08T09:30:43.958Z,96199.06
2023-03-08T09:31:45.665Z,96201.44
2023-03-08T09:32:47.440Z,96193.34
2023-03-08T09:33:52.078Z,96198.75
2023-03-08T09:34:54.225Z,96193.13
2023-03-08T09:35:59.717Z,96203.34
2023-03-08T09:37:01.677Z,96194.69
2023-03-08T09:38:03.461Z,96193.63
2023-03-08T09:39:05.635Z,96198.19
2023-03-08T09:40:11.080Z,96193.56
2023-03-08T09:41:33.807Z,96199.75
2023-03-08T09:42:36.447Z,96200.22
2023-03-08T09:43:52.044Z,96192.09
2023-03-08T09:45:07.367Z,96197.63
2023-03-08T09:46:19.308Z,96193.81
2023-03-08T09:47:53.095Z,96197.66
2023-03-08T09:49:00.840Z,96191.59
2023-03-08T09:50:10.277Z,96198.63
2023-03-08T09:51:14.045Z,96196.72
2023-03-08T09:52:34.804Z,96194.66
2023-03-08T09:53:44.670Z,96191.50
2023-03-08T09:54:47.324Z,96190.44
2023-03-08T09:55:54.562Z,96187.84
2023-03-08T09:56:56.529Z,96187.91
2023-03-08T09:58:14.791Z,96184.41
2023-03-08T09:59:33.527Z,96185.94
2023-03-08T10:00:37.575Z,96189.34
2023-03-08T10:02:03.347Z,96184.38
2023-03-08T10:03:23.556Z,96186.41
2023-03-08T10:04:42.122Z,96187.06
2023-03-08T10:05:49.535Z,96184.38
2023-03-08T10:06:59.970Z,96181.59
2023-03-08T10:08:10.433Z,96181.94
2023-03-08T10:09:37.307Z,96176.22
2023-03-08T10:10:41.833Z,96174.72
2023-03-08T10:11:49.534Z,96178.94
2023-03-08T10:12:51.021Z,96177.75
2023-03-08T10:13:56.816Z,96166.19
2023-03-08T10:15:04.927Z,96172.78
2023-03-08T10:16:24.801Z,96169.00
2023-03-08T10:17:44.292Z,96163.28
2023-03-08T10:18:51.502Z,96164.19
2023-03-08T10:19:59.804Z,96162.78
2023-03-08T10:21:02.397Z,96165.88
2023-03-08T10:22:22.821Z,96153.25
2023-03-08T10:23:26.395Z,96154.50
2023-03-08T10:24:43.877Z,96159.97
2023-03-08T10:25:47.281Z,96164.97
2023-03-08T10:26:48.916Z,96159.13
2023-03-08T10:27:54.444Z,96159.56
2023-03-08T10:28:56.047Z,96153.84
2023-03-08T10:30:00.202Z,96147.69
2023-03-08T10:31:04.453Z,96155.06
2023-03-08T10:32:06.312Z,96155.91
2023-03-08T10:33:12.181Z,96152.88
2023-03-08T10:34:29.772Z,96151.34
2023-03-08T10:35:54.444Z,96147.88
2023-03-08T10:37:06.482Z,96144.78
2023-03-08T10:38:16.519Z,96145.16
2023-03-08T10:39:19.036Z,96145.94
2023-03-08T10:40:22.834Z,96144.41
2023-03-08T10:41:25.542Z,96149.41
2023-03-08T10:42:28.612Z,96142.44
2023-03-08T10:43:40.603Z,96137.78
2023-03-08T10:44:47.299Z,96134.28
2023-03-08T10:45:59.033Z,96132.38
2023-03-08T10:47:17.967Z,96127.75
2023-03-08T10:48:21.552Z,96125.47
2023-03-08T10:49:27.775Z,96121.22
2023-03-08T10:50:38.065Z,96131.66
2023-03-08T10:51:39.825Z,96123.19
2023-03-08T10:52:42.322Z,96120.91
2023-03-08T10:53:57.335Z,96125.59
2023-03-08T10:55:06.416Z,96121.38
2023-03-08T10:56:31.894Z,96122.56
2023-03-08T10:57:34.021Z,96117.94
2023-03-08T10:58:38.210Z,96109.84
2023-03-08T10:59:39.813Z,96107.13
2023-03-08T11:00:43.860Z,96105.22
2023-03-08T11:01:54.979Z,96107.91
2023-03-08T11:03:18.511Z,96105.59
2023-03-08T11:04:22.018Z,96104.81
2023-03-08T11:05:29.042Z,96105.97
2023-03-08T11:06:31.665Z,96092.84
2023-03-08T11:07:33.623Z,96102.13
2023-03-08T11:08:50.775Z,96092.44
2023-03-08T11:09:52.808Z,96094.75
2023-03-08T11:11:11.943Z,96104.00
2023-03-08T11:12:24.498Z,96080.03
2023-03-08T11:13:31.704Z,96087.38
2023-03-08T11:14:33.507Z,96090.88
2023-03-08T11:15:38.144Z,96087.78
2023-03-08T11:17:16.993Z,96086.22
2023-03-08T11:18:34.785Z,96088.56
2023-03-08T11:19:53.983Z,96085.84
2023-03-08T11:21:03.208Z,96083.13
2023-03-08T11:22:07.545Z,96077.75
2023-03-08T11:23:19.974Z,96076.94
2023-03-08T11:24:35.920Z,96067.69
2023-03-08T11:26:29.953Z,96081.97
2023-03-08T11:27:40.633Z,96075.44
2023-03-08T11:28:42.194Z,96076.56
2023-03-08T11:30:06.627Z,96070.00
2023-03-08T11:31:46.975Z,96059.97
2023-03-08T11:32:58.619Z,96060.75
2023-03-08T11:34:03.314Z,96056.13
2023-03-08T11:35:11.758Z,96056.13
2023-03-08T11:36:38.862Z,96049.56
2023-03-08T11:37:58.593Z,96053.81
2023-03-08T11:39:25.696Z,96054.97
2023-03-08T11:40:35.974Z,96050.72
2023-03-08T11:42:19.863Z,96063.06
2023-03-08T11:43:33.252Z,96059.22
2023-03-08T11:45:23.676Z,96049.16
2023-03-08T11:46:44.210Z,96054.59
2023-03-08T11:48:17.860Z,96042.22
2023-03-08T11:49:54.667Z,96041.06
2023-03-08T11:51:13.995Z,96045.31
2023-03-08T11:52:44.632Z,96045.31
2023-03-08T11:54:07.983Z,96042.22
2023-03-08T11:55:28.324Z,96041.84
2023-03-08T11:57:00.757Z,96048.41
2023-03-08T11:58:43.968Z,96039.50
2023-03-08T11:59:56.819Z,96035.28
2023-03-08T12:01:05.206Z,96028.31
2023-03-08T12:02:06.717Z,96029.06
2023-03-08T12:03:26.685Z,96035.25
2023-03-08T12:04:36.895Z,96027.13
2023-03-08T12:05:44.417Z,96022.50
2023-03-08T12:06:47.698Z,96024.41
2023-03-08T12:07:58.161Z,96029.81
2023-03-08T12:09:08.105Z,96030.56
2023-03-08T12:10:19.965Z,96037.56
2023-03-08T12:11:25.637Z,96029.81
2023-03-08T12:12:35.014Z,96031.34
2023-03-08T12:13:55.219Z,96030.56
2023-03-08T12:15:02.845Z,96039.84
2023-03-08T12:16:15.643Z,96028.28
2023-03-08T12:17:26.901Z,96032.16
2023-03-08T12:18:34.389Z,96019.03
2023-03-08T12:19:41.492Z,96031.38
2023-03-08T12:20:44.334Z,96029.47
2023-03-08T12:21:45.852Z,96023.66
2023-03-08T12:22:56.788Z,96018.25
2023-03-08T12:24:26.460Z,96020.16
2023-03-08T12:25:33.361Z,96018.22
2023-03-08T12:26:40.419Z,96006.63
2023-03-08T12:27:50.309Z,96015.94
2023-03-08T12:29:00.554Z,96017.84
2023-03-08T12:30:23.700Z,96011.28
2023-03-08T12:31:51.103Z,96017.09
2023-03-08T12:32:56.418Z,96013.63
2023-03-08T12:34:00.010Z,96013.63
2023-03-08T12:35:20.680Z,96012.84
2023-03-08T12:36:23.046Z,96013.66
2023-03-08T12:37:27.843Z,96015.97
2023-03-08T12:38:41.037Z,96009.00
2023-03-08T12:39:42.674Z,96008.22